Time;durP1;ratioP1;P1;durP2;ratioP2;P2;SDS_P1;SDS_P2;PMS_P1;PMS_P2;Temp;Humidity;BMP_temperature;BMP_pressure;BME280_temperature;BME280_humidity;BME280_pressure;Samples;Min_cycle;Max_cycle;Signal;HPM_P1;HPM_P2
2022/01/07 00:01:15;;;;;;;15.88;9.13;;;3.40;99.90;;;;;;5093983;28;20040;-77
2022/01/07 00:03:41;;;;;;;14.35;9.32;;;3.40;99.90;;;;;;5095484;28;20040;-77
2022/01/07 00:06:07;;;;;;;14.27;8.43;;;3.50;99.90;;;;;;5096871;28;20101;-75
2022/01/07 00:08:33;;;;;;;15.18;8.68;;;3.40;99.90;;;;;;5096617;28;20687;-76
2022/01/07 00:10:59;;;;;;;14.23;8.63;;;3.40;99.90;;;;;;5113599;28;20127;-76
2022/01/07 00:13:25;;;;;;;14.88;8.32;;;3.50;99.90;;;;;;5105535;28;20481;-77
2022/01/07 00:15:53;;;;;;;13.32;8.30;;;3.50;99.90;;;;;;5092681;28;20076;-72
2022/01/07 00:18:20;;;;;;;12.75;7.75;;;3.50;99.90;;;;;;5095120;28;20119;-76
2022/01/07 00:20:46;;;;;;;14.15;8.25;;;3.50;99.90;;;;;;5113895;28;20584;-76
2022/01/07 00:23:12;;;;;;;15.02;8.43;;;3.50;99.90;;;;;;5105948;28;20123;-75
2022/01/07 00:25:38;;;;;;;14.38;8.20;;;3.50;99.90;;;;;;5093037;28;20127;-77
2022/01/07 00:28:04;;;;;;;15.75;8.48;;;3.50;99.90;;;;;;5092242;28;20040;-76
2022/01/07 00:30:30;;;;;;;14.05;8.20;;;3.50;99.90;;;;;;5093768;28;20044;-76
2022/01/07 00:32:56;;;;;;;14.75;9.05;;;3.50;99.90;;;;;;5096335;28;20045;-77
2022/01/07 00:35:22;;;;;;;13.32;8.70;;;3.50;99.90;;;;;;5113625;28;20130;-76
2022/01/07 00:37:49;;;;;;;12.10;8.43;;;3.50;99.90;;;;;;5104592;28;20088;-75
2022/01/07 00:40:23;;;;;;;16.15;8.98;;;3.50;99.90;;;;;;5112864;28;20120;-75
2022/01/07 00:42:50;;;;;;;15.02;8.25;;;3.50;99.90;;;;;;5102692;28;20044;-77
2022/01/07 00:45:21;;;;;;;13.68;8.95;;;3.50;99.90;;;;;;5092600;28;20036;-76
2022/01/07 00:47:47;;;;;;;15.27;8.38;;;3.40;99.90;;;;;;5092860;28;20047;-78
2022/01/07 00:50:14;;;;;;;12.90;7.97;;;3.40;99.90;;;;;;5092511;28;20086;-76
2022/01/07 00:52:40;;;;;;;15.10;8.27;;;3.40;99.90;;;;;;5093038;28;20044;-76
2022/01/07 00:55:08;;;;;;;13.50;8.18;;;3.40;99.90;;;;;;5112735;28;20047;-76
2022/01/07 00:57:33;;;;;;;12.32;7.88;;;3.40;99.90;;;;;;5096256;28;20165;-77
2022/01/07 00:59:59;;;;;;;13.73;7.97;;;3.50;99.90;;;;;;5110882;28;20126;-76
2022/01/07 01:02:25;;;;;;;10.80;8.00;;;3.40;99.90;;;;;;5107257;28;20489;-76
2022/01/07 01:04:51;;;;;;;12.70;8.48;;;3.40;99.90;;;;;;5102005;28;20047;-77
2022/01/07 01:07:17;;;;;;;11.85;7.88;;;3.40;99.90;;;;;;5091803;28;20044;-76
2022/01/07 01:09:43;;;;;;;12.50;8.13;;;3.40;99.90;;;;;;5092099;28;20048;-77
2022/01/07 01:12:11;;;;;;;12.85;8.63;;;3.40;99.90;;;;;;5091978;28;20044;-76
2022/01/07 01:14:37;;;;;;;15.50;8.10;;;3.40;99.90;;;;;;5106879;28;20082;-76
2022/01/07 01:17:03;;;;;;;11.93;7.93;;;3.40;99.90;;;;;;5099591;28;20492;-76
2022/01/07 01:19:29;;;;;;;12.88;8.07;;;3.40;99.90;;;;;;5105051;28;20058;-75
2022/01/07 01:21:55;;;;;;;12.82;8.02;;;3.30;99.90;;;;;;5096389;28;20048;-75
2022/01/07 01:24:21;;;;;;;10.52;7.72;;;3.30;99.90;;;;;;5093758;28;20042;-76
2022/01/07 01:26:47;;;;;;;13.90;8.48;;;3.30;99.90;;;;;;5092740;28;20118;-77
2022/01/07 01:29:12;;;;;;;12.05;8.95;;;3.30;99.90;;;;;;5091726;28;20457;-76
2022/01/07 01:31:38;;;;;;;14.63;8.60;;;3.30;99.90;;;;;;5092595;28;20048;-77
2022/01/07 01:34:04;;;;;;;12.05;8.38;;;3.20;99.90;;;;;;5098839;28;20040;-78
2022/01/07 01:36:31;;;;;;;13.15;8.57;;;3.20;99.90;;;;;;5111693;28;20048;-77
2022/01/07 01:38:57;;;;;;;12.63;9.13;;;3.20;99.90;;;;;;5104377;28;20051;-77
2022/01/07 01:41:23;;;;;;;14.38;9.43;;;3.10;99.90;;;;;;5091932;28;20052;-77
2022/01/07 01:43:49;;;;;;;13.95;9.38;;;3.10;99.90;;;;;;5092803;28;20362;-77
2022/01/07 01:46:19;;;;;;;15.10;9.40;;;3.10;99.90;;;;;;5095261;28;20050;-76
2022/01/07 01:48:46;;;;;;;14.70;8.70;;;3.10;99.90;;;;;;5112820;28;20048;-77
2022/01/07 01:51:13;;;;;;;15.05;9.90;;;3.00;99.90;;;;;;5104980;28;20374;-78
2022/01/07 01:53:39;;;;;;;18.10;9.75;;;3.00;99.90;;;;;;5100432;28;20044;-77
2022/01/07 01:56:05;;;;;;;17.42;10.43;;;3.00;99.90;;;;;;5095733;28;20054;-76
2022/01/07 01:58:31;;;;;;;14.57;10.40;;;3.00;99.90;;;;;;5098800;28;20473;-77
2022/01/07 02:00:57;;;;;;;15.57;10.38;;;3.00;99.90;;;;;;5095050;28;20052;-75
2022/01/07 02:03:23;;;;;;;16.40;10.25;;;2.90;99.90;;;;;;5095383;28;20066;-76
2022/01/07 02:05:49;;;;;;;16.25;11.52;;;2.90;99.90;;;;;;5095880;28;20040;-76
2022/01/07 02:08:15;;;;;;;17.83;11.32;;;2.90;99.90;;;;;;5100033;28;20167;-77
2022/01/07 02:10:42;;;;;;;19.77;11.50;;;2.80;99.90;;;;;;5104907;28;20044;-76
2022/01/07 02:13:08;;;;;;;19.08;12.27;;;2.80;99.90;;;;;;5096500;28;20073;-76
2022/01/07 02:15:34;;;;;;;17.77;12.07;;;2.80;99.90;;;;;;5096910;28;20557;-75
2022/01/07 02:17:59;;;;;;;21.52;13.13;;;2.80;99.90;;;;;;5096128;28;20143;-77
2022/01/07 02:20:30;;;;;;;20.33;13.07;;;2.80;99.90;;;;;;5095491;28;20290;-75
2022/01/07 02:22:57;;;;;;;21.55;13.10;;;2.80;99.90;;;;;;5096219;28;20075;-75
2022/01/07 02:25:23;;;;;;;20.65;13.07;;;2.80;99.90;;;;;;5094948;28;20040;-74
2022/01/07 02:27:49;;;;;;;19.70;14.45;;;2.80;99.90;;;;;;5095239;28;20539;-76
2022/01/07 02:30:28;;;;;;;19.60;14.38;;;2.80;99.90;;;;;;5096639;28;20040;-75
2022/01/07 02:32:55;;;;;;;20.95;14.60;;;2.80;99.90;;;;;;5110796;28;20054;-75
2022/01/07 02:35:23;;;;;;;20.98;15.10;;;2.80;99.90;;;;;;5096913;27;20095;-77
2022/01/07 02:37:48;;;;;;;17.92;14.85;;;2.70;99.90;;;;;;5095503;28;20075;-76
2022/01/07 02:40:15;;;;;;;21.15;15.35;;;2.70;99.90;;;;;;5094518;28;20044;-75
2022/01/07 02:42:41;;;;;;;20.40;15.57;;;2.70;99.90;;;;;;5095844;28;20080;-73
2022/01/07 02:45:09;;;;;;;21.95;15.35;;;2.70;99.90;;;;;;5111033;28;20435;-74
2022/01/07 02:47:49;;;;;;;19.92;16.25;;;2.70;99.90;;;;;;5107443;28;20109;-73
2022/01/07 02:50:15;;;;;;;21.73;16.95;;;2.70;99.90;;;;;;5094962;28;20048;-73
2022/01/07 02:52:41;;;;;;;22.80;16.67;;;2.70;99.90;;;;;;5095354;28;20451;-74
2022/01/07 02:55:07;;;;;;;23.52;17.40;;;2.60;99.90;;;;;;5095942;28;20127;-74
2022/01/07 02:57:33;;;;;;;23.20;16.95;;;2.60;99.90;;;;;;5094287;28;20044;-73
2022/01/07 02:59:59;;;;;;;23.25;17.92;;;2.60;99.90;;;;;;5095065;28;20503;-74
2022/01/07 03:02:24;;;;;;;26.55;18.58;;;2.60;99.90;;;;;;5092831;28;20451;-73
2022/01/07 03:04:50;;;;;;;22.75;17.30;;;2.60;99.90;;;;;;5104779;28;20050;-73
2022/01/07 03:07:15;;;;;;;19.98;17.63;;;2.60;99.90;;;;;;5115004;28;20069;-73
2022/01/07 03:09:41;;;;;;;22.98;17.85;;;2.60;99.90;;;;;;5107245;28;20515;-74
2022/01/07 03:12:07;;;;;;;24.13;18.17;;;2.60;99.90;;;;;;5113607;28;20048;-74
2022/01/07 03:14:33;;;;;;;21.52;17.60;;;2.60;99.90;;;;;;5098372;28;20043;-74
2022/01/07 03:16:58;;;;;;;21.75;17.52;;;2.60;99.90;;;;;;5114869;27;20056;-71
2022/01/07 03:19:24;;;;;;;24.88;17.38;;;2.60;99.90;;;;;;5093964;28;20040;-73
2022/01/07 03:21:50;;;;;;;21.98;18.40;;;2.50;99.90;;;;;;5094788;28;20519;-75
2022/01/07 03:24:15;;;;;;;23.70;18.75;;;2.50;99.90;;;;;;5095303;28;20396;-72
2022/01/07 03:26:41;;;;;;;23.58;18.83;;;2.60;99.90;;;;;;5094693;28;20105;-73
2022/01/07 03:29:07;;;;;;;22.70;17.70;;;2.50;99.90;;;;;;5108475;28;20057;-73
2022/01/07 03:31:32;;;;;;;22.23;18.55;;;2.50;99.90;;;;;;5093745;28;20052;-75
2022/01/07 03:33:58;;;;;;;26.25;18.85;;;2.50;99.90;;;;;;5107167;28;20066;-74
2022/01/07 03:36:24;;;;;;;22.02;18.40;;;2.50;99.90;;;;;;5073407;28;20091;-73
2022/01/07 03:38:49;;;;;;;24.25;18.52;;;2.50;99.90;;;;;;5100662;28;20046;-74
2022/01/07 03:41:15;;;;;;;23.67;19.33;;;2.50;99.90;;;;;;5100221;28;20389;-72
2022/01/07 03:43:41;;;;;;;23.85;18.60;;;2.50;99.90;;;;;;5093951;28;20042;-74
2022/01/07 03:46:06;;;;;;;25.05;19.00;;;2.50;99.90;;;;;;5109083;28;20039;-73
2022/01/07 03:48:32;;;;;;;22.90;18.60;;;2.50;99.90;;;;;;5097432;28;20044;-74
2022/01/07 03:50:58;;;;;;;21.25;17.90;;;2.50;99.90;;;;;;5094116;28;20516;-73
2022/01/07 03:53:25;;;;;;;24.42;18.83;;;2.60;99.90;;;;;;5101035;28;20039;-75
2022/01/07 03:55:52;;;;;;;24.80;18.58;;;2.60;99.90;;;;;;5104209;28;20079;-74
2022/01/07 03:58:18;;;;;;;21.95;18.30;;;2.60;99.90;;;;;;5098837;28;20486;-71
2022/01/07 04:00:44;;;;;;;25.25;17.55;;;2.60;99.90;;;;;;5107559;28;20123;-73
2022/01/07 04:03:14;;;;;;;19.88;17.25;;;2.60;99.90;;;;;;5095286;28;20131;-74
2022/01/07 04:05:40;;;;;;;21.08;17.58;;;2.70;99.90;;;;;;5099992;28;20039;-74
2022/01/07 04:08:06;;;;;;;22.05;18.10;;;2.70;99.90;;;;;;5114248;28;20085;-74
2022/01/07 04:10:33;;;;;;;20.85;17.48;;;2.70;99.90;;;;;;5112981;28;20138;-75
2022/01/07 04:12:59;;;;;;;20.75;17.48;;;2.80;99.90;;;;;;5095622;28;20044;-75
2022/01/07 04:15:24;;;;;;;22.20;17.63;;;2.80;99.90;;;;;;5095270;28;20052;-71
2022/01/07 04:17:52;;;;;;;20.73;17.60;;;2.80;99.90;;;;;;5114097;28;20102;-75
2022/01/07 04:20:24;;;;;;;21.63;17.45;;;2.80;99.90;;;;;;5111620;28;20084;-74
2022/01/07 04:22:50;;;;;;;21.80;17.50;;;2.80;99.90;;;;;;5092969;28;20040;-74
2022/01/07 04:25:18;;;;;;;22.30;17.20;;;2.80;99.90;;;;;;5094628;28;20044;-74
2022/01/07 04:27:47;;;;;;;25.58;17.75;;;2.80;99.90;;;;;;5113185;28;20062;-74
2022/01/07 04:30:14;;;;;;;19.02;16.98;;;2.80;99.90;;;;;;5112290;28;20400;-75
2022/01/07 04:32:41;;;;;;;21.40;16.30;;;2.80;99.90;;;;;;5095360;28;20084;-74
2022/01/07 04:35:07;;;;;;;20.15;15.85;;;2.80;99.90;;;;;;5093152;28;20493;-74
2022/01/07 04:37:33;;;;;;;20.05;16.33;;;2.80;99.90;;;;;;5092922;28;20458;-74
2022/01/07 04:39:59;;;;;;;20.67;16.13;;;2.80;99.90;;;;;;5093301;28;20083;-75
2022/01/07 04:42:24;;;;;;;19.13;16.52;;;2.80;99.90;;;;;;5097582;28;20055;-71
2022/01/07 04:44:50;;;;;;;18.67;16.23;;;2.90;99.90;;;;;;5092573;28;20035;-74
2022/01/07 04:47:16;;;;;;;19.40;15.82;;;2.90;99.90;;;;;;5093370;28;20514;-74
2022/01/07 04:49:42;;;;;;;19.55;16.77;;;2.90;99.90;;;;;;5092348;28;20089;-75
2022/01/07 04:52:07;;;;;;;17.58;15.38;;;2.90;99.90;;;;;;5093102;28;20044;-73
2022/01/07 04:54:33;;;;;;;17.77;15.95;;;2.90;99.90;;;;;;5090828;28;20131;-75
2022/01/07 04:56:59;;;;;;;19.00;15.25;;;2.90;99.90;;;;;;5105387;28;20047;-74
2022/01/07 04:59:26;;;;;;;19.02;15.85;;;2.90;99.90;;;;;;5108672;28;20163;-72
2022/01/07 05:01:52;;;;;;;19.05;15.15;;;2.90;99.90;;;;;;5105497;28;20499;-76
2022/01/07 05:04:18;;;;;;;17.63;15.73;;;2.80;99.90;;;;;;5112215;28;20047;-74
2022/01/07 05:06:44;;;;;;;17.65;15.85;;;2.90;99.90;;;;;;5093283;28;20044;-75
2022/01/07 05:09:16;;;;;;;17.30;14.25;;;2.90;99.90;;;;;;5104084;28;20396;-76
2022/01/07 05:11:42;;;;;;;18.35;14.50;;;2.90;99.90;;;;;;5092415;28;20158;-75
2022/01/07 05:14:08;;;;;;;16.33;14.63;;;2.90;99.90;;;;;;5105982;28;20054;-75
2022/01/07 05:16:34;;;;;;;18.80;14.40;;;2.80;99.90;;;;;;5096577;28;20048;-74
2022/01/07 05:19:00;;;;;;;15.90;14.20;;;2.80;99.90;;;;;;5092666;28;20132;-73
2022/01/07 05:21:26;;;;;;;16.35;14.60;;;2.80;99.90;;;;;;5109301;28;20123;-77
2022/01/07 05:23:52;;;;;;;17.27;14.52;;;2.80;99.90;;;;;;5100554;28;20119;-75
2022/01/07 05:26:18;;;;;;;16.67;14.68;;;2.80;99.90;;;;;;5091641;28;20396;-75
2022/01/07 05:28:43;;;;;;;16.42;14.45;;;2.80;99.90;;;;;;5091761;28;20048;-75
2022/01/07 05:31:09;;;;;;;15.73;14.10;;;2.80;99.90;;;;;;5092380;28;20047;-74
2022/01/07 05:33:34;;;;;;;17.02;15.23;;;2.80;99.90;;;;;;5091956;28;20123;-74
2022/01/07 05:36:00;;;;;;;16.05;14.25;;;2.80;99.90;;;;;;5092082;28;20056;-73
2022/01/07 05:38:26;;;;;;;16.50;14.80;;;2.80;99.90;;;;;;5092315;28;20047;-75
2022/01/07 05:40:52;;;;;;;16.10;13.98;;;2.80;99.90;;;;;;5091977;28;20086;-75
2022/01/07 05:43:17;;;;;;;15.55;13.95;;;2.80;99.90;;;;;;5092124;28;20051;-75
2022/01/07 05:45:45;;;;;;;16.25;14.52;;;2.80;99.90;;;;;;5091839;28;20044;-74
2022/01/07 05:48:14;;;;;;;16.63;13.82;;;2.80;99.90;;;;;;5092227;28;20127;-75
2022/01/07 05:50:40;;;;;;;15.85;14.25;;;2.80;99.90;;;;;;5090849;28;20044;-74
2022/01/07 05:53:06;;;;;;;16.70;13.60;;;2.80;99.90;;;;;;5092442;28;20101;-75
2022/01/07 05:55:31;;;;;;;14.98;13.38;;;2.80;99.90;;;;;;5092307;28;20044;-75
2022/01/07 05:57:57;;;;;;;15.75;14.02;;;2.80;99.90;;;;;;5091471;28;20044;-75
2022/01/07 06:00:23;;;;;;;15.63;13.95;;;2.80;99.90;;;;;;5092323;28;20528;-75
2022/01/07 06:02:49;;;;;;;14.70;13.10;;;2.80;99.90;;;;;;5091787;28;20109;-76
2022/01/07 06:05:14;;;;;;;14.90;13.18;;;2.80;99.90;;;;;;5092051;28;20544;-75
2022/01/07 06:07:40;;;;;;;15.60;14.00;;;2.80;99.90;;;;;;5091622;28;20044;-74
2022/01/07 06:10:07;;;;;;;16.08;14.25;;;2.80;99.90;;;;;;5092212;28;20048;-75
2022/01/07 06:12:33;;;;;;;14.50;13.00;;;2.80;99.90;;;;;;5092334;28;20504;-75
2022/01/07 06:14:59;;;;;;;15.75;13.95;;;2.80;99.90;;;;;;5091010;28;20040;-75
2022/01/07 06:17:25;;;;;;;15.30;13.70;;;2.90;99.90;;;;;;5092122;28;20189;-74
2022/01/07 06:19:51;;;;;;;14.75;13.35;;;2.90;99.90;;;;;;5091503;28;20507;-75
2022/01/07 06:22:17;;;;;;;15.05;13.65;;;2.90;99.90;;;;;;5092109;28;20536;-75
2022/01/07 06:24:43;;;;;;;14.48;13.07;;;2.90;99.90;;;;;;5091545;28;20121;-75
2022/01/07 06:27:10;;;;;;;14.90;13.20;;;2.90;99.90;;;;;;5091717;28;20127;-76
2022/01/07 06:29:35;;;;;;;15.63;13.35;;;2.90;99.90;;;;;;5092103;28;20044;-76
2022/01/07 06:32:01;;;;;;;15.43;12.98;;;3.00;99.90;;;;;;5090217;28;20047;-75
2022/01/07 06:34:27;;;;;;;14.18;12.68;;;3.00;99.90;;;;;;5090844;28;20491;-75
2022/01/07 06:36:52;;;;;;;14.35;12.95;;;3.00;99.90;;;;;;5092054;28;20090;-75
2022/01/07 06:39:19;;;;;;;14.35;12.85;;;3.00;99.90;;;;;;5095595;28;20051;-75
2022/01/07 06:41:47;;;;;;;15.48;13.25;;;3.00;99.90;;;;;;5095005;28;20040;-75
2022/01/07 06:44:13;;;;;;;13.75;12.20;;;3.00;99.90;;;;;;5095708;28;20406;-76
2022/01/07 06:46:39;;;;;;;13.73;12.43;;;3.10;99.90;;;;;;5095023;28;20097;-72
2022/01/07 06:49:05;;;;;;;14.20;12.68;;;3.00;99.90;;;;;;5095081;28;20044;-75
2022/01/07 06:51:33;;;;;;;14.82;13.05;;;3.10;99.90;;;;;;5095382;28;20503;-75
2022/01/07 06:54:00;;;;;;;14.20;12.70;;;3.10;99.90;;;;;;5094698;28;20101;-75
2022/01/07 06:56:27;;;;;;;14.02;12.80;;;3.10;99.90;;;;;;5095310;28;20059;-75
2022/01/07 06:58:53;;;;;;;14.25;12.93;;;3.10;99.90;;;;;;5094260;28;20040;-75
2022/01/07 07:01:20;;;;;;;14.25;12.85;;;3.20;99.90;;;;;;5094845;28;20598;-73
2022/01/07 07:03:46;;;;;;;14.88;13.38;;;3.10;99.90;;;;;;5094396;28;20397;-74
2022/01/07 07:06:12;;;;;;;14.65;13.25;;;3.10;99.90;;;;;;5094809;28;20043;-75
2022/01/07 07:08:38;;;;;;;15.57;14.02;;;3.10;99.90;;;;;;5094587;28;20690;-73
2022/01/07 07:11:04;;;;;;;15.70;14.15;;;3.10;99.90;;;;;;5093679;28;20131;-75
2022/01/07 07:13:30;;;;;;;16.02;14.25;;;3.10;99.90;;;;;;5093556;28;20374;-75
2022/01/07 07:15:56;;;;;;;15.50;14.07;;;3.10;99.90;;;;;;5094109;28;20075;-76
2022/01/07 07:18:21;;;;;;;15.77;14.13;;;3.10;99.90;;;;;;5094927;28;20052;-75
2022/01/07 07:20:47;;;;;;;15.43;13.95;;;3.10;99.90;;;;;;5094244;28;20044;-75
2022/01/07 07:23:13;;;;;;;16.70;14.93;;;3.10;99.90;;;;;;5094164;28;20047;-76
2022/01/07 07:25:39;;;;;;;17.25;15.55;;;3.10;99.90;;;;;;5094820;28;20044;-75
2022/01/07 07:28:05;;;;;;;17.52;15.57;;;3.10;99.90;;;;;;5094080;28;20087;-75
2022/01/07 07:30:36;;;;;;;18.02;16.33;;;3.10;99.90;;;;;;5094723;28;20091;-75
2022/01/07 07:33:28;;;;;;;18.58;16.58;;;3.20;99.90;;;;;;5093220;28;20054;-75
2022/01/07 07:38:37;;;;;;;19.90;17.80;;;3.20;99.90;;;;;;5093630;28;20059;-75
2022/01/07 07:41:03;;;;;;;19.67;17.58;;;3.20;99.90;;;;;;5093839;28;20044;-75
2022/01/07 07:43:29;;;;;;;19.77;17.67;;;3.20;99.90;;;;;;5094413;28;20538;-75
2022/01/07 07:45:55;;;;;;;19.42;17.52;;;3.20;99.90;;;;;;5092441;28;20374;-75
2022/01/07 07:48:20;;;;;;;21.00;18.80;;;3.20;99.90;;;;;;5092752;28;20044;-75
2022/01/07 07:50:46;;;;;;;22.83;20.30;;;3.20;99.90;;;;;;5093946;28;20401;-76
2022/01/07 07:53:12;;;;;;;21.30;18.95;;;3.20;99.90;;;;;;5093585;28;20044;-76
2022/01/07 07:55:38;;;;;;;23.05;20.77;;;3.20;99.90;;;;;;5094066;28;20058;-76
2022/01/07 07:58:04;;;;;;;22.83;20.52;;;3.20;99.90;;;;;;5092941;28;20075;-75
2022/01/07 08:00:31;;;;;;;22.50;19.85;;;3.20;99.90;;;;;;5093968;28;20516;-76
2022/01/07 08:02:58;;;;;;;22.95;20.48;;;3.30;99.90;;;;;;5093237;28;20063;-75
2022/01/07 08:05:24;;;;;;;23.45;21.05;;;3.30;99.90;;;;;;5093936;28;20047;-76
2022/01/07 08:07:50;;;;;;;24.58;21.95;;;3.30;99.90;;;;;;5093722;28;20047;-73
2022/01/07 08:10:22;;;;;;;24.98;21.67;;;3.30;99.90;;;;;;5093172;28;20036;-75
2022/01/07 08:18:01;;;;;;;26.77;22.02;;;3.40;99.90;;;;;;5093326;28;20421;-75
2022/01/07 08:20:27;;;;;;;24.73;22.23;;;3.40;99.90;;;;;;5093635;28;20081;-75
2022/01/07 08:22:53;;;;;;;26.40;23.55;;;3.50;99.90;;;;;;5093374;28;20051;-72
2022/01/07 08:25:18;;;;;;;27.52;24.60;;;3.50;99.90;;;;;;5091622;28;20044;-75
2022/01/07 08:27:44;;;;;;;26.77;24.00;;;3.50;99.90;;;;;;5093541;28;20050;-75
2022/01/07 08:30:20;;;;;;;27.98;24.92;;;3.60;99.90;;;;;;5092871;28;20073;-76
2022/01/07 08:35:30;;;;;;;27.58;24.65;;;3.60;99.90;;;;;;5093167;28;20059;-76
2022/01/07 08:37:56;;;;;;;30.48;24.55;;;3.60;99.90;;;;;;5092723;28;20044;-71
2022/01/07 08:40:22;;;;;;;27.98;25.02;;;3.70;99.90;;;;;;5093078;28;20173;-75
2022/01/07 08:42:48;;;;;;;28.73;25.60;;;3.70;99.90;;;;;;5093122;28;20118;-76
2022/01/07 08:45:14;;;;;;;29.45;26.33;;;3.70;99.90;;;;;;5092249;28;20862;-75
2022/01/07 08:47:39;;;;;;;29.10;26.05;;;3.80;99.90;;;;;;5092551;28;20048;-76
2022/01/07 08:50:05;;;;;;;30.52;27.15;;;3.80;99.90;;;;;;5092583;28;20040;-76
2022/01/07 08:52:31;;;;;;;30.17;26.95;;;3.90;99.90;;;;;;5092768;28;20070;-75
2022/01/07 08:54:57;;;;;;;29.10;25.75;;;3.90;99.90;;;;;;5092394;28;20044;-72
2022/01/07 08:57:23;;;;;;;29.90;26.60;;;3.90;99.90;;;;;;5092423;28;20055;-75
2022/01/07 08:59:49;;;;;;;29.70;26.35;;;4.00;99.90;;;;;;5092651;28;20401;-75
2022/01/07 09:02:15;;;;;;;32.72;27.15;;;4.00;99.90;;;;;;5092131;28;20563;-75
2022/01/07 09:04:41;;;;;;;29.95;26.73;;;4.10;99.90;;;;;;5092541;28;20044;-75
2022/01/07 09:07:07;;;;;;;29.58;26.40;;;4.20;99.90;;;;;;5091966;28;20066;-75
2022/01/07 09:09:32;;;;;;;34.00;27.50;;;4.10;99.90;;;;;;5092973;28;20102;-75
2022/01/07 09:11:58;;;;;;;29.77;26.50;;;4.10;99.90;;;;;;5091767;28;20040;-72
2022/01/07 09:14:24;;;;;;;30.27;27.05;;;4.20;99.90;;;;;;5092464;28;20533;-75
2022/01/07 09:16:50;;;;;;;31.75;27.27;;;4.20;99.90;;;;;;5092414;28;20056;-75
2022/01/07 09:19:15;;;;;;;31.40;28.02;;;4.20;99.90;;;;;;5091858;28;20048;-75
2022/01/07 09:21:41;;;;;;;33.60;28.38;;;4.30;99.90;;;;;;5092447;28;20055;-75
2022/01/07 09:24:07;;;;;;;32.72;28.55;;;4.30;99.90;;;;;;5092090;28;20040;-75
2022/01/07 09:26:34;;;;;;;31.27;27.75;;;4.30;99.90;;;;;;5092627;28;20465;-75
2022/01/07 09:28:59;;;;;;;31.33;27.75;;;4.40;99.90;;;;;;5092191;28;20044;-76
2022/01/07 09:31:25;;;;;;;34.85;27.60;;;4.40;99.90;;;;;;5091257;28;20393;-76
2022/01/07 09:33:51;;;;;;;31.15;27.35;;;4.50;99.90;;;;;;5092526;28;20043;-75
2022/01/07 09:36:17;;;;;;;31.52;27.95;;;4.60;99.90;;;;;;5091538;28;20036;-75
2022/01/07 09:38:42;;;;;;;31.63;27.30;;;4.60;99.90;;;;;;5082974;28;20051;-74
2022/01/07 09:41:08;;;;;;;29.42;26.33;;;4.60;99.90;;;;;;5086175;28;20044;-75
2022/01/07 09:43:34;;;;;;;29.23;25.50;;;4.60;99.90;;;;;;5088983;28;20053;-75
2022/01/07 09:46:00;;;;;;;28.73;24.90;;;4.60;99.90;;;;;;5089886;28;20047;-80
2022/01/07 09:48:25;;;;;;;27.98;25.10;;;4.60;99.90;;;;;;5087755;28;20044;-75
2022/01/07 09:50:51;;;;;;;29.17;25.75;;;4.60;99.90;;;;;;5087726;28;20745;-75
2022/01/07 09:53:18;;;;;;;28.75;25.17;;;4.60;99.90;;;;;;5088570;28;20075;-75
2022/01/07 09:55:44;;;;;;;29.33;25.15;;;4.60;99.90;;;;;;5088730;28;20549;-75
2022/01/07 09:58:13;;;;;;;28.25;25.42;;;4.50;99.90;;;;;;5089460;28;20489;-75
2022/01/07 10:00:44;;;;;;;29.52;25.08;;;4.60;99.90;;;;;;5089980;28;20056;-74
2022/01/07 10:03:15;;;;;;;32.20;25.92;;;4.60;99.90;;;;;;5088810;28;20052;-74
2022/01/07 10:05:45;;;;;;;27.58;24.67;;;4.70;99.90;;;;;;5089969;28;20056;-72
2022/01/07 10:08:25;;;;;;;27.40;24.55;;;4.70;99.90;;;;;;5088868;28;20127;-73
2022/01/07 10:11:13;;;;;;;27.48;24.45;;;4.80;99.90;;;;;;5088806;28;20040;-74
2022/01/07 10:13:40;;;;;;;26.15;23.35;;;4.80;99.90;;;;;;5093343;28;20160;-75
2022/01/07 10:16:23;;;;;;;29.67;24.27;;;4.80;99.90;;;;;;5092299;28;20087;-74
2022/01/07 10:18:49;;;;;;;27.60;23.27;;;4.80;99.90;;;;;;5093271;28;20056;-74
2022/01/07 10:21:17;;;;;;;30.48;23.65;;;5.00;99.90;;;;;;5092091;28;20048;-74
2022/01/07 10:23:46;;;;;;;25.48;22.83;;;5.10;99.90;;;;;;5092964;28;20043;-74
2022/01/07 10:26:17;;;;;;;25.40;22.80;;;5.20;99.90;;;;;;5092538;28;20036;-73
2022/01/07 10:28:43;;;;;;;;;;;5.20;99.90;;;;;;5093666;28;20043;-75
2022/01/07 10:31:18;;;;;;;24.63;21.67;;;5.20;99.90;;;;;;5092704;28;19915;-74
2022/01/07 10:33:44;;;;;;;26.08;21.75;;;5.20;99.90;;;;;;5093037;28;20043;-75
2022/01/07 10:36:09;;;;;;;27.42;21.95;;;5.30;99.90;;;;;;5092893;28;20354;-74
2022/01/07 10:38:46;;;;;;;24.73;22.08;;;5.30;99.90;;;;;;5091958;28;20105;-74
2022/01/07 10:41:13;;;;;;;23.83;21.08;;;5.20;99.90;;;;;;5092336;28;20047;-75
2022/01/07 10:43:39;;;;;;;26.50;21.35;;;5.20;99.90;;;;;;5092802;28;20048;-74
2022/01/07 10:46:11;;;;;;;24.52;21.85;;;5.20;99.90;;;;;;5088426;28;20090;-74
2022/01/07 10:48:42;;;;;;;25.38;22.35;;;5.20;99.90;;;;;;5091649;28;20125;-74
2022/01/07 10:51:14;;;;;;;24.33;21.73;;;5.30;99.90;;;;;;5091518;28;20090;-73
2022/01/07 10:53:41;;;;;;;26.50;23.38;;;5.30;99.90;;;;;;5091954;28;20075;-74
2022/01/07 10:56:11;;;;;;;26.42;22.15;;;5.40;99.90;;;;;;5091411;28;20127;-74
2022/01/07 10:58:58;;;;;;;27.30;22.13;;;5.50;99.90;;;;;;5092375;28;20059;-75
2022/01/07 11:01:43;;;;;;;25.85;23.08;;;5.60;99.90;;;;;;5091327;28;20044;-73
2022/01/07 11:04:12;;;;;;;26.13;22.25;;;5.80;99.90;;;;;;5092574;28;20127;-73
2022/01/07 11:06:39;;;;;;;25.38;21.55;;;5.90;99.90;;;;;;5093008;28;20055;-75
2022/01/07 11:09:09;;;;;;;22.30;20.13;;;5.90;99.90;;;;;;5091980;28;20047;-74
2022/01/07 11:11:51;;;;;;;23.57;20.53;;;6.00;99.90;;;;;;5091240;28;20556;-73
2022/01/07 11:14:28;;;;;;;18.92;16.17;;;5.90;99.90;;;;;;5092072;28;20115;-74
2022/01/07 11:16:57;;;;;;;21.70;19.45;;;5.80;99.90;;;;;;5091199;28;20091;-75
2022/01/07 11:19:31;;;;;;;23.33;19.92;;;5.70;99.90;;;;;;5091447;28;20443;-74
2022/01/07 11:21:59;;;;;;;21.63;19.33;;;5.80;99.90;;;;;;5092319;28;20044;-74
2022/01/07 11:24:42;;;;;;;22.30;19.65;;;5.80;99.90;;;;;;5091657;28;20266;-74
2022/01/07 11:27:09;;;;;;;24.20;20.45;;;5.80;99.90;;;;;;5092487;28;20328;-74
2022/01/07 11:29:37;;;;;;;24.33;21.70;;;5.90;99.90;;;;;;5091845;28;20048;-74
2022/01/07 11:32:32;;;;;;;26.65;22.67;;;5.90;99.90;;;;;;5091460;28;20079;-75
2022/01/07 11:35:21;;;;;;;23.15;20.75;;;6.00;99.90;;;;;;5091873;28;20058;-74
2022/01/07 11:37:55;;;;;;;22.02;19.73;;;6.10;99.90;;;;;;5092038;28;20054;-74
2022/01/07 11:40:30;;;;;;;24.08;21.23;;;6.10;99.90;;;;;;5091405;28;20145;-73
2022/01/07 11:43:00;;;;;;;22.13;19.23;;;6.10;99.90;;;;;;5091450;28;20047;-74
2022/01/07 11:45:39;;;;;;;20.00;17.90;;;6.20;99.90;;;;;;5090587;28;20078;-73
2022/01/07 11:48:20;;;;;;;22.65;17.23;;;6.30;99.90;;;;;;5092211;28;20129;-75
2022/01/07 11:50:55;;;;;;;20.30;16.70;;;6.20;99.90;;;;;;5091854;28;20040;-74
2022/01/07 11:53:41;;;;;;;20.92;17.02;;;6.10;99.90;;;;;;5092979;28;20039;-75
2022/01/07 11:56:15;;;;;;;15.02;12.50;;;6.00;99.90;;;;;;5094038;28;20127;-75
2022/01/07 11:58:40;;;;;;;10.98;8.70;;;5.90;99.90;;;;;;5094061;28;20075;-75
2022/01/07 12:01:07;;;;;;;13.10;9.38;;;5.60;99.90;;;;;;5094622;28;20090;-75
2022/01/07 12:03:36;;;;;;;8.32;7.53;;;5.40;99.90;;;;;;5093339;28;20047;-75
2022/01/07 12:06:26;;;;;;;8.57;7.30;;;5.10;99.90;;;;;;5094305;28;20048;-76
2022/01/07 12:09:10;;;;;;;7.53;6.40;;;4.90;99.90;;;;;;5090942;28;20095;-76
2022/01/07 12:11:41;;;;;;;6.40;5.10;;;4.80;99.90;;;;;;5093758;28;20052;-75
2022/01/07 12:14:15;;;;;;;6.40;5.65;;;4.70;99.90;;;;;;5093099;28;20040;-75
2022/01/07 12:16:43;;;;;;;6.05;4.00;;;4.60;99.90;;;;;;5093552;28;20056;-76
2022/01/07 12:19:12;;;;;;;4.72;3.80;;;4.60;99.90;;;;;;5093578;28;20079;-76
2022/01/07 12:21:38;;;;;;;6.32;3.70;;;4.50;99.90;;;;;;5093647;28;20044;-72
2022/01/07 12:24:09;;;;;;;7.50;2.75;;;4.50;99.90;;;;;;5093970;28;20075;-77
2022/01/07 12:26:34;;;;;;;5.88;2.92;;;4.50;99.90;;;;;;5093501;28;20071;-74
2022/01/07 12:29:00;;;;;;;5.10;2.40;;;4.50;99.90;;;;;;5093981;28;20515;-74
2022/01/07 12:31:26;;;;;;;5.63;1.95;;;4.40;99.90;;;;;;5093383;28;20059;-74
2022/01/07 12:33:57;;;;;;;4.55;2.03;;;4.40;99.90;;;;;;5093016;28;20032;-73
2022/01/07 12:36:27;;;;;;;3.75;1.70;;;4.20;99.90;;;;;;5093258;28;20051;-75
2022/01/07 12:39:07;;;;;;;5.88;1.67;;;4.10;99.90;;;;;;5093705;28;20127;-74
2022/01/07 12:41:33;;;;;;;5.57;1.63;;;4.10;99.90;;;;;;5093320;28;20464;-74
2022/01/07 12:44:11;;;;;;;4.82;1.58;;;4.10;99.90;;;;;;5093671;28;20036;-74
2022/01/07 12:46:38;;;;;;;3.60;1.50;;;4.00;99.90;;;;;;5092834;28;20044;-74
2022/01/07 12:49:05;;;;;;;4.45;2.40;;;4.00;99.90;;;;;;5093226;28;20514;-74
2022/01/07 12:51:31;;;;;;;4.70;2.40;;;4.00;99.90;;;;;;5093094;28;20116;-73
2022/01/07 12:54:01;;;;;;;3.88;2.40;;;4.00;99.90;;;;;;5093386;28;20088;-74